createdAt,value
2022-11-13T00:01:23.831Z,102360.38
2022-11-13T00:04:10.786Z,102356.19
2022-11-13T00:06:59.631Z,102352.00
2022-11-13T00:09:45.056Z,102355.31
2022-11-13T00:12:30.799Z,102357.53
2022-11-13T00:15:16.367Z,102353.69
2022-11-13T00:18:03.210Z,102354.50
2022-11-13T00:20:48.834Z,102349.84
2022-11-13T00:23:35.499Z,102338.75
2022-11-13T00:26:23.265Z,102342.88
2022-11-13T00:29:09.001Z,102334.06
2022-11-13T00:31:54.237Z,102336.03
2022-11-13T00:34:48.148Z,102337.94
2022-11-13T00:37:34.202Z,102333.56
2022-11-13T00:40:20.003Z,102336.91
2022-11-13T00:43:05.297Z,102338.53
2022-11-13T00:45:50.737Z,102335.53
2022-11-13T00:48:36.670Z,102332.78
2022-11-13T00:51:22.756Z,102329.50
2022-11-13T00:54:08.280Z,102327.91
2022-11-13T00:56:53.557Z,102329.78
2022-11-13T00:59:39.105Z,102326.00
2022-11-13T01:02:24.475Z,102330.41
2022-11-13T01:05:10.094Z,102330.69
2022-11-13T01:07:55.438Z,102320.75
2022-11-13T01:10:53.121Z,102317.63
2022-11-13T01:13:43.627Z,102322.13
2022-11-13T01:16:29.340Z,102320.94
2022-11-13T01:19:14.965Z,102326.41
2022-11-13T01:22:00.413Z,102319.44
2022-11-13T01:24:45.712Z,102328.81
2022-11-13T01:27:31.412Z,102315.53
2022-11-13T01:30:17.493Z,102316.63
2022-11-13T01:33:02.907Z,102325.16
2022-11-13T01:35:48.521Z,102325.75
2022-11-13T01:38:37.062Z,102319.66
2022-11-13T01:41:25.828Z,102325.44
2022-11-13T01:44:14.341Z,102315.56
2022-11-13T01:46:59.780Z,102313.38
2022-11-13T01:49:46.693Z,102314.22
2022-11-13T01:52:39.035Z,102305.50
2022-11-13T01:55:24.858Z,102303.06
2022-11-13T01:58:11.784Z,102306.44
2022-11-13T02:00:57.272Z,102315.34
2022-11-13T02:03:42.681Z,102304.34
2022-11-13T02:06:43.929Z,102307.38
2022-11-13T02:09:33.913Z,102306.31
2022-11-13T02:12:25.397Z,102313.22
2022-11-13T02:15:10.879Z,102314.31
2022-11-13T02:18:00.078Z,102308.22
2022-11-13T02:20:54.093Z,102305.22
2022-11-13T02:23:49.145Z,102312.94
2022-11-13T02:26:36.884Z,102305.75
2022-11-13T02:29:22.441Z,102315.41
2022-11-13T02:32:07.566Z,102306.84
2022-11-13T02:34:52.943Z,102311.81
2022-11-13T02:37:38.240Z,102313.97
2022-11-13T02:40:24.946Z,102319.22
2022-11-13T02:43:10.232Z,102325.84
2022-11-13T02:45:55.661Z,102317.81
2022-11-13T02:48:40.954Z,102324.69
2022-11-13T02:51:26.779Z,102320.56
2022-11-13T02:54:16.693Z,102328.28
2022-11-13T02:57:02.582Z,102322.94
2022-11-13T02:59:47.978Z,102328.75
2022-11-13T03:02:33.370Z,102325.97
2022-11-13T03:05:18.859Z,102333.06
2022-11-13T03:25:34.729Z,102316.78
2022-11-13T03:28:20.263Z,102329.50
2022-11-13T03:31:06.097Z,102319.44
2022-11-13T03:33:53.799Z,102320.06
2022-11-13T03:36:39.105Z,102312.34
2022-11-13T03:39:24.123Z,102314.78
2022-11-13T03:42:09.371Z,102319.44
2022-11-13T03:44:55.331Z,102315.56
2022-11-13T03:47:40.415Z,102316.06
2022-11-13T03:50:26.175Z,102310.56
2022-11-13T03:53:12.118Z,102318.03
2022-11-13T03:55:58.090Z,102315.25
2022-11-13T03:58:48.449Z,102318.84
2022-11-13T04:01:35.063Z,102308.13
2022-11-13T04:04:20.858Z,102314.72
2022-11-13T04:07:06.052Z,102313.84
2022-11-13T04:09:51.381Z,102300.97
2022-11-13T04:12:36.749Z,102311.69
2022-11-13T04:15:22.222Z,102305.28
2022-11-13T04:18:07.378Z,102302.63
2022-11-13T04:20:52.858Z,102305.25
2022-11-13T04:23:38.203Z,102308.22
2022-11-13T04:26:23.657Z,102318.56
2022-11-13T04:29:08.966Z,102318.00
2022-11-13T04:31:54.350Z,102317.75
2022-11-13T04:34:39.911Z,102319.06
2022-11-13T04:37:25.086Z,102318.53
2022-11-13T04:40:11.090Z,102328.16
2022-11-13T04:42:56.536Z,102325.06
2022-11-13T04:45:42.154Z,102324.84
2022-11-13T04:48:27.534Z,102325.47
2022-11-13T04:51:13.665Z,102327.59
2022-11-13T04:53:59.357Z,102321.94
2022-11-13T04:56:44.767Z,102319.94
2022-11-13T04:59:30.199Z,102319.13
2022-11-13T05:02:15.781Z,102320.25
2022-11-13T05:05:04.983Z,102317.66
2022-11-13T05:07:50.665Z,102320.59
2022-11-13T05:10:36.903Z,102320.41
2022-11-13T05:13:22.222Z,102318.63
2022-11-13T05:16:09.934Z,102319.53
2022-11-13T05:18:55.216Z,102319.84
2022-11-13T05:21:40.563Z,102323.81
2022-11-13T05:24:26.109Z,102324.66
2022-11-13T05:27:15.998Z,102333.28
2022-11-13T05:30:04.190Z,102323.63
2022-11-13T05:32:49.579Z,102326.19
2022-11-13T05:35:34.841Z,102330.19
2022-11-13T05:38:20.150Z,102326.13
2022-11-13T05:41:08.570Z,102330.34
2022-11-13T05:43:59.176Z,102338.66
2022-11-13T05:46:45.101Z,102339.50
2022-11-13T05:49:30.730Z,102344.94
2022-11-13T05:52:15.796Z,102343.25
2022-11-13T05:55:01.160Z,102343.25
2022-11-13T05:57:46.553Z,102349.91
2022-11-13T06:00:31.906Z,102351.81
2022-11-13T06:03:17.033Z,102362.31
2022-11-13T06:06:02.726Z,102361.72
2022-11-13T06:08:49.375Z,102359.53
2022-11-13T06:11:34.778Z,102368.53
2022-11-13T06:14:19.825Z,102362.56
2022-11-13T06:17:05.243Z,102352.13
2022-11-13T06:19:50.795Z,102356.63
2022-11-13T06:22:36.173Z,102350.03
2022-11-13T06:25:21.670Z,102343.91
2022-11-13T06:28:06.930Z,102352.59
2022-11-13T06:30:52.268Z,102360.88
2022-11-13T06:33:38.470Z,102353.53
2022-11-13T06:36:26.087Z,102355.34
2022-11-13T06:39:12.347Z,102352.72
2022-11-13T06:41:57.778Z,102348.91
2022-11-13T06:44:43.074Z,102347.19
2022-11-13T06:47:28.805Z,102347.78
2022-11-13T06:50:13.707Z,102344.59
2022-11-13T06:52:59.173Z,102342.31
2022-11-13T06:55:49.870Z,102344.00
2022-11-13T06:58:35.786Z,102349.53
2022-11-13T07:01:23.517Z,102343.06
2022-11-13T07:04:12.862Z,102330.69
2022-11-13T07:06:58.650Z,102332.41
2022-11-13T07:09:43.991Z,102336.16
2022-11-13T07:12:29.403Z,102334.28
2022-11-13T07:15:16.609Z,102332.28
2022-11-13T07:18:02.842Z,102328.06
2022-11-13T07:20:48.898Z,102326.59
2022-11-13T07:23:37.037Z,102326.34
2022-11-13T07:26:22.454Z,102321.56
2022-11-13T07:29:07.934Z,102318.50
2022-11-13T07:31:53.713Z,102319.50
2022-11-13T07:34:39.299Z,102323.75
2022-11-13T07:37:24.652Z,102332.66
2022-11-13T07:40:11.362Z,102314.66
2022-11-13T07:43:01.307Z,102320.09
2022-11-13T07:45:46.503Z,102311.56
2022-11-13T07:48:32.193Z,102307.16
2022-11-13T07:51:18.230Z,102303.94
2022-11-13T07:54:03.605Z,102305.41
2022-11-13T07:56:49.044Z,102305.69
2022-11-13T07:59:34.951Z,102311.13
2022-11-13T08:02:26.118Z,102305.69
2022-11-13T08:05:12.132Z,102307.25
2022-11-13T08:07:58.305Z,102304.03
2022-11-13T08:10:43.574Z,102297.28
2022-11-13T08:13:29.241Z,102295.91
2022-11-13T08:16:14.602Z,102303.41
2022-11-13T08:18:59.842Z,102298.44
2022-11-13T08:21:45.325Z,102305.22
2022-11-13T08:24:30.766Z,102298.25
2022-11-13T08:27:16.221Z,102300.19
2022-11-13T08:30:01.848Z,102291.28
2022-11-13T08:32:48.425Z,102301.88
2022-11-13T08:35:33.580Z,102287.53
2022-11-13T08:38:19.022Z,102286.94
2022-11-13T08:41:09.371Z,102294.75
2022-11-13T08:43:55.276Z,102291.50
2022-11-13T08:46:41.077Z,102299.19
2022-11-13T08:49:26.373Z,102290.28
2022-11-13T08:52:12.103Z,102293.53
2022-11-13T08:54:57.486Z,102296.31
2022-11-13T08:57:43.109Z,102288.34
2022-11-13T09:00:30.854Z,102284.97
2022-11-13T09:03:16.437Z,102277.81
2022-11-13T09:06:06.539Z,102280.84
2022-11-13T09:08:51.958Z,102268.88
2022-11-13T09:11:37.792Z,102281.16
2022-11-13T09:14:25.104Z,102270.28
2022-11-13T09:17:11.205Z,102257.03
2022-11-13T09:20:00.800Z,102255.47
2022-11-13T09:22:50.456Z,102261.75
2022-11-13T09:25:38.180Z,102250.84
2022-11-13T09:28:23.991Z,102247.59
2022-11-13T09:31:10.753Z,102245.94
2022-11-13T09:33:56.638Z,102245.16
2022-11-13T09:36:42.509Z,102237.00
2022-11-13T09:39:28.720Z,102237.22
2022-11-13T09:42:23.942Z,102225.47
2022-11-13T09:45:14.365Z,102222.63
2022-11-13T09:48:43.475Z,102211.19
2022-11-13T09:51:32.688Z,102215.25
2022-11-13T09:54:19.448Z,102212.69
2022-11-13T09:57:28.459Z,102212.09
2022-11-13T10:00:22.388Z,102203.66
2022-11-13T10:03:07.783Z,102210.69
2022-11-13T10:06:21.222Z,102204.22
2022-11-13T10:09:38.126Z,102197.78
2022-11-13T10:12:27.468Z,102197.53
2022-11-13T10:15:13.569Z,102194.59
2022-11-13T10:18:08.351Z,102193.56
2022-11-13T10:20:58.140Z,102187.66
2022-11-13T10:23:47.958Z,102192.75
2022-11-13T10:26:33.915Z,102184.72
2022-11-13T10:29:20.885Z,102186.38
2022-11-13T10:32:35.685Z,102184.72
2022-11-13T10:35:40.010Z,102181.34
2022-11-13T10:38:28.982Z,102176.84
2022-11-13T10:41:17.681Z,102173.84
2022-11-13T10:44:18.068Z,102168.66
2022-11-13T10:47:36.068Z,102175.34
2022-11-13T10:50:32.335Z,102175.13
2022-11-13T10:53:20.777Z,102166.22
2022-11-13T10:56:33.775Z,102170.75
2022-11-13T10:59:20.267Z,102168.00
2022-11-13T11:02:19.818Z,102173.66
2022-11-13T11:05:16.120Z,102171.13
2022-11-13T11:08:01.379Z,102167.69
2022-11-13T11:11:16.511Z,102158.59
2022-11-13T11:14:17.343Z,102162.09
2022-11-13T11:17:06.378Z,102160.09
2022-11-13T11:20:33.562Z,102161.47
2022-11-13T11:23:43.821Z,102162.34
2022-11-13T11:26:35.148Z,102176.66
2022-11-13T11:29:39.513Z,102167.31
2022-11-13T11:32:32.519Z,102163.41
2022-11-13T11:35:22.130Z,102161.00
2022-11-13T11:38:29.662Z,102163.78
2022-11-13T11:41:19.220Z,102160.47
2022-11-13T11:44:18.379Z,102170.28
2022-11-13T11:47:04.106Z,102164.44
2022-11-13T11:49:50.050Z,102172.28
2022-11-13T11:52:47.924Z,102161.19
2022-11-13T11:55:54.902Z,102163.59
2022-11-13T11:59:14.533Z,102161.53
2022-11-13T12:02:06.307Z,102152.25
2022-11-13T12:04:57.534Z,102144.94
2022-11-13T12:07:49.057Z,102145.66
2022-11-13T12:10:40.404Z,102148.84
2022-11-13T12:13:32.694Z,102145.94
2022-11-13T12:16:36.110Z,102143.53
2022-11-13T12:19:24.514Z,102140.59
2022-11-13T12:23:07.071Z,102141.38
2022-11-13T12:26:24.403Z,102142.22
2022-11-13T12:29:27.698Z,102133.25
2022-11-13T12:32:15.742Z,102141.78
2022-11-13T12:35:09.844Z,102139.06
2022-11-13T12:37:55.810Z,102133.59
2022-11-13T12:40:58.088Z,102138.91
2022-11-13T12:44:02.054Z,102130.97
2022-11-13T12:46:49.691Z,102130.19
2022-11-13T12:49:36.689Z,102137.34
2022-11-13T12:52:24.534Z,102142.25
2022-11-13T12:55:32.029Z,102133.50
2022-11-13T12:58:26.291Z,102128.94
2022-11-13T13:01:11.791Z,102136.00
2022-11-13T13:04:12.341Z,102132.47
2022-11-13T13:07:23.111Z,102133.78
2022-11-13T13:10:27.030Z,102131.63
2022-11-13T13:13:24.007Z,102127.75
2022-11-13T13:16:10.756Z,102127.66
2022-11-13T13:19:28.492Z,102119.69
2022-11-13T13:22:32.386Z,102118.31
2022-11-13T13:25:23.854Z,102113.91
2022-11-13T13:28:09.158Z,102116.16
2022-11-13T13:31:19.097Z,102117.22
2022-11-13T13:34:16.832Z,102116.63
2022-11-13T13:37:23.481Z,102119.31
2022-11-13T13:40:37.710Z,102124.03
2022-11-13T13:43:44.921Z,102114.38
2022-11-13T13:46:32.276Z,102121.34
2022-11-13T13:49:22.045Z,102118.47
2022-11-13T13:52:14.112Z,102112.63
2022-11-13T13:55:02.135Z,102111.50
2022-11-13T13:57:47.820Z,102105.41
2022-11-13T14:00:33.914Z,102100.47
2022-11-13T14:03:21.993Z,102104.50
2022-11-13T14:06:20.265Z,102106.88
2022-11-13T14:09:10.937Z,102102.53
2022-11-13T14:12:07.890Z,102091.34
2022-11-13T14:14:54.595Z,102098.66
2022-11-13T14:17:40.021Z,102102.06
2022-11-13T14:20:25.573Z,102095.97
2022-11-13T14:23:15.366Z,102103.78
2022-11-13T14:26:01.701Z,102102.66
2022-11-13T14:28:58.293Z,102092.69
2022-11-13T14:31:43.700Z,102096.69
2022-11-13T14:34:31.063Z,102094.03
2022-11-13T14:37:37.900Z,102099.56
2022-11-13T14:40:32.498Z,102094.31
2022-11-13T14:43:22.847Z,102095.06
2022-11-13T14:46:24.473Z,102092.41
2022-11-13T14:49:15.649Z,102090.75
2022-11-13T14:52:01.727Z,102083.63
2022-11-13T14:55:13.729Z,102084.16
2022-11-13T14:57:52.792Z,102080.88
2022-11-13T15:00:38.680Z,102083.31
2022-11-13T15:03:25.153Z,102085.59
2022-11-13T15:06:22.852Z,102080.31
2022-11-13T15:09:13.589Z,102077.34
2022-11-13T15:27:42.924Z,102072.63
2022-11-13T15:30:29.014Z,102076.13
2022-11-13T15:33:15.716Z,102067.00
2022-11-13T15:36:01.683Z,102068.88
2022-11-13T15:38:47.560Z,102070.16
2022-11-13T15:41:34.229Z,102067.66
2022-11-13T15:44:19.558Z,102074.50
2022-11-13T15:47:20.185Z,102068.66
2022-11-13T15:50:15.352Z,102064.25
2022-11-13T15:53:05.443Z,102064.53
2022-11-13T15:55:51.502Z,102062.44
2022-11-13T15:58:37.172Z,102061.53
2022-11-13T16:01:23.348Z,102061.25
2022-11-13T16:04:09.000Z,102057.50
2022-11-13T16:06:54.940Z,102061.06
2022-11-13T16:09:40.413Z,102060.63
2022-11-13T16:12:25.815Z,102064.56
2022-11-13T16:15:14.783Z,102066.66
2022-11-13T16:18:01.214Z,102071.09
2022-11-13T16:20:46.289Z,102078.84
2022-11-13T16:23:31.969Z,102074.03
2022-11-13T16:26:26.139Z,102076.69
2022-11-13T16:29:19.372Z,102074.28
2022-11-13T16:32:04.630Z,102074.41
2022-11-13T16:34:50.190Z,102079.94
2022-11-13T16:37:36.029Z,102077.53
2022-11-13T16:40:25.549Z,102077.63
2022-11-13T16:43:11.461Z,102076.22
2022-11-13T16:46:00.401Z,102075.69
2022-11-13T16:48:46.580Z,102069.88
2022-11-13T16:51:31.632Z,102068.44
2022-11-13T16:54:17.040Z,102067.38
2022-11-13T16:57:02.684Z,102071.81
2022-11-13T16:59:47.902Z,102071.59
2022-11-13T17:02:33.480Z,102070.81
2022-11-13T17:05:20.291Z,102068.41
2022-11-13T17:08:06.097Z,102064.59
2022-11-13T17:10:58.595Z,102059.47
2022-11-13T17:13:44.640Z,102066.13
2022-11-13T17:16:31.827Z,102058.97
2022-11-13T17:19:16.872Z,102065.84
2022-11-13T17:22:02.226Z,102060.59
2022-11-13T17:24:47.828Z,102065.34
2022-11-13T17:27:33.061Z,102059.03
2022-11-13T17:30:18.468Z,102056.59
2022-11-13T17:33:03.619Z,102054.94
2022-11-13T17:35:56.612Z,102054.97
2022-11-13T17:38:42.074Z,102056.16
2022-11-13T17:41:27.405Z,102049.53
2022-11-13T17:44:12.948Z,102052.56
2022-11-13T17:46:58.483Z,102052.06
2022-11-13T17:49:44.101Z,102052.06
2022-11-13T17:52:29.486Z,102053.75
2022-11-13T17:55:14.957Z,102049.59
2022-11-13T17:58:01.115Z,102051.81
2022-11-13T18:00:46.550Z,102050.75
2022-11-13T18:03:32.349Z,102052.09
2022-11-13T18:06:20.113Z,102042.22
2022-11-13T18:09:06.581Z,102042.25
2022-11-13T18:11:52.614Z,102042.25
2022-11-13T18:14:38.212Z,102046.34
2022-11-13T18:17:24.330Z,102033.09
2022-11-13T18:20:10.381Z,102035.06
2022-11-13T18:22:57.013Z,102035.63
2022-11-13T18:25:42.467Z,102032.34
2022-11-13T18:28:27.858Z,102035.06
2022-11-13T18:31:17.822Z,102030.72
2022-11-13T18:34:05.666Z,102028.25
2022-11-13T18:36:51.319Z,102033.25
2022-11-13T18:39:37.200Z,102035.75
2022-11-13T18:42:25.609Z,102033.50
2022-11-13T18:45:12.034Z,102031.59
2022-11-13T18:47:58.082Z,102021.41
2022-11-13T18:50:55.235Z,102024.72
2022-11-13T18:53:44.126Z,102026.09
2022-11-13T18:56:33.890Z,102036.59
2022-11-13T18:59:19.868Z,102029.16
2022-11-13T19:02:05.940Z,102026.09
2022-11-13T19:04:51.548Z,102032.75
2022-11-13T19:07:36.975Z,102034.94
2022-11-13T19:10:22.725Z,102033.53
2022-11-13T19:13:11.546Z,102032.75
2022-11-13T19:15:58.441Z,102029.75
2022-11-13T19:18:51.285Z,102032.25
2022-11-13T19:21:37.781Z,102028.34
2022-11-13T19:24:26.109Z,102024.75
2022-11-13T19:27:11.973Z,102022.56
2022-11-13T19:29:57.782Z,102028.91
2022-11-13T19:32:43.334Z,102030.84
2022-11-13T19:35:28.923Z,102021.22
2022-11-13T19:38:14.630Z,102020.38
2022-11-13T19:41:00.052Z,102029.25
2022-11-13T19:43:45.507Z,102012.13
2022-11-13T19:46:32.189Z,102017.13
2022-11-13T19:49:17.286Z,102025.66
2022-11-13T19:52:02.858Z,102016.88
2022-11-13T19:54:48.083Z,102019.63
2022-11-13T19:57:33.388Z,102008.03
2022-11-13T20:00:19.223Z,102019.88
2022-11-13T20:03:07.574Z,102016.56
2022-11-13T20:06:01.159Z,102014.91
2022-11-13T20:08:46.721Z,102007.19
2022-11-13T20:11:32.876Z,102006.34
2022-11-13T20:14:18.179Z,102010.47
2022-11-13T20:17:03.786Z,102001.91
2022-11-13T20:19:49.815Z,102008.28
2022-11-13T20:22:35.807Z,101999.44
2022-11-13T20:25:22.030Z,102008.84
2022-11-13T20:28:07.441Z,102004.41
2022-11-13T20:31:03.180Z,101995.31
2022-11-13T20:33:53.733Z,101997.53
2022-11-13T20:36:39.178Z,101997.50
2022-11-13T20:39:24.764Z,101995.31
2022-11-13T20:42:10.134Z,101992.84
2022-11-13T20:45:00.005Z,101993.16
2022-11-13T20:47:46.755Z,101994.25
2022-11-13T20:50:33.722Z,101992.34
2022-11-13T20:53:19.365Z,101992.09
2022-11-13T20:56:07.690Z,101984.38
2022-11-13T20:58:53.723Z,101983.81
2022-11-13T21:01:39.610Z,101984.63
2022-11-13T21:04:25.167Z,101976.63
2022-11-13T21:07:10.417Z,101984.63
2022-11-13T21:09:55.982Z,101985.19
2022-11-13T21:12:41.464Z,101987.97
2022-11-13T21:15:27.583Z,101979.97
2022-11-13T21:18:13.239Z,101986.56
2022-11-13T21:21:10.782Z,101980.28
2022-11-13T21:23:57.723Z,101975.34
2022-11-13T21:26:43.564Z,101976.19
2022-11-13T21:29:28.742Z,101974.00
2022-11-13T21:32:14.077Z,101972.34
2022-11-13T21:34:59.445Z,101970.69
2022-11-13T21:37:44.975Z,101974.25
2022-11-13T21:40:31.322Z,101968.50
2022-11-13T21:43:17.127Z,101964.63
2022-11-13T21:46:06.406Z,101972.06
2022-11-13T21:49:10.206Z,101972.63
2022-11-13T21:51:55.641Z,101966.59
2022-11-13T21:54:41.630Z,101971.28
2022-11-13T21:57:27.273Z,101968.50
2022-11-13T22:00:13.400Z,101967.97
2022-11-13T22:02:59.376Z,101964.41
2022-11-13T22:05:45.638Z,101958.88
2022-11-13T22:08:31.729Z,101960.28
2022-11-13T22:11:17.163Z,101949.28
2022-11-13T22:14:03.620Z,101955.88
2022-11-13T22:16:49.202Z,101957.78
2022-11-13T22:19:36.336Z,101955.31
2022-11-13T22:22:22.049Z,101950.09
2022-11-13T22:25:07.631Z,101945.13
2022-11-13T22:27:53.509Z,101948.16
2022-11-13T22:30:38.663Z,101943.22
2022-11-13T22:33:27.875Z,101943.22
2022-11-13T22:36:35.620Z,101945.94
2022-11-13T22:39:21.356Z,101942.94
2022-11-13T22:42:21.601Z,101942.38
2022-11-13T22:45:22.727Z,101934.66
2022-11-13T22:48:11.442Z,101926.66
2022-11-13T22:51:04.491Z,101924.19
2022-11-13T22:53:55.304Z,101928.06
2022-11-13T22:56:41.752Z,101925.03
2022-11-13T22:59:27.276Z,101933.28
2022-11-13T23:02:12.652Z,101925.28
2022-11-13T23:04:58.241Z,101934.94
2022-11-13T23:07:43.513Z,101932.16
2022-11-13T23:10:29.008Z,101923.91
2022-11-13T23:13:14.232Z,101926.09
2022-11-13T23:16:01.725Z,101923.09
2022-11-13T23:18:47.574Z,101924.44
2022-11-13T23:21:33.151Z,101925.84
2022-11-13T23:24:18.747Z,101923.38
2022-11-13T23:27:04.003Z,101929.97
2022-11-13T23:29:50.453Z,101926.94
2022-11-13T23:32:36.339Z,101929.69
2022-11-13T23:35:21.897Z,101923.34
2022-11-13T23:38:07.695Z,101918.13
2022-11-13T23:40:58.189Z,101917.00
2022-11-13T23:46:48.750Z,101929.63
2022-11-13T23:49:34.253Z,101925.00
2022-11-13T23:52:19.677Z,101923.56
2022-11-13T23:55:05.850Z,101934.59
2022-11-13T23:57:59.535Z,101931.81
